createdAt,value
2017-12-29T00:02:24.240Z,5.60
2017-12-29T00:04:53.158Z,9.63
2017-12-29T00:07:20.890Z,14.53
2017-12-29T00:09:51.703Z,8.93
2017-12-29T00:12:20.048Z,10.83
2017-12-29T00:17:21.473Z,9.50
2017-12-29T00:20:10.809Z,9.03
2017-12-29T00:26:35.588Z,8.00
2017-12-29T00:29:06.311Z,9.33
2017-12-29T00:31:34.517Z,10.40
2017-12-29T00:34:03.255Z,8.33
2017-12-29T00:36:30.836Z,7.93
2017-12-29T00:39:24.020Z,10.10
2017-12-29T00:41:54.828Z,9.10
2017-12-29T00:48:50.306Z,5.80
2017-12-29T00:51:31.233Z,7.23
2017-12-29T00:54:08.221Z,6.63
2017-12-29T00:56:40.005Z,7.53
2017-12-29T00:59:10.310Z,7.33
2017-12-29T01:01:44.472Z,7.00
2017-12-29T01:04:27.369Z,7.40
2017-12-29T01:07:00.522Z,8.40
2017-12-29T01:09:28.186Z,9.47
2017-12-29T01:11:56.743Z,7.23
2017-12-29T01:14:25.355Z,6.63
2017-12-29T01:16:53.218Z,9.43
2017-12-29T01:19:21.160Z,9.80
2017-12-29T01:21:49.411Z,9.97
2017-12-29T01:24:17.642Z,8.30
2017-12-29T01:26:45.930Z,10.60
2017-12-29T01:29:13.714Z,8.20
2017-12-29T01:31:42.665Z,9.10
2017-12-29T01:34:31.829Z,9.37
2017-12-29T01:36:59.504Z,7.27
2017-12-29T01:39:27.280Z,8.67
2017-12-29T01:41:55.029Z,7.83
2017-12-29T01:44:22.805Z,7.07
2017-12-29T01:46:50.438Z,6.73
2017-12-29T01:49:19.099Z,6.70
2017-12-29T01:51:49.458Z,7.13
2017-12-29T01:54:17.161Z,5.63
2017-12-29T01:56:44.699Z,8.07
2017-12-29T01:59:12.843Z,9.40
2017-12-29T02:01:40.449Z,9.27
2017-12-29T02:04:08.064Z,9.60
2017-12-29T02:06:35.599Z,7.23
2017-12-29T02:09:03.201Z,7.17
2017-12-29T02:11:30.754Z,6.70
2017-12-29T02:13:58.616Z,8.00
2017-12-29T02:16:27.629Z,9.00
2017-12-29T02:18:55.352Z,6.80
2017-12-29T02:21:23.691Z,7.10
2017-12-29T02:23:51.293Z,11.53
2017-12-29T02:26:19.322Z,8.20
2017-12-29T02:28:48.588Z,6.63
2017-12-29T02:31:17.157Z,9.03
2017-12-29T02:33:44.878Z,9.03
2017-12-29T02:40:00.744Z,11.00
2017-12-29T02:42:28.392Z,9.47
2017-12-29T02:44:57.507Z,9.03
2017-12-29T02:47:25.884Z,6.17
2017-12-29T02:49:54.891Z,7.43
2017-12-29T02:52:22.509Z,7.30
2017-12-29T02:54:58.009Z,7.60
2017-12-29T02:57:26.583Z,7.70
2017-12-29T02:59:55.110Z,7.27
2017-12-29T03:02:49.502Z,11.20
2017-12-29T03:05:20.788Z,9.03
2017-12-29T03:07:50.944Z,10.53
2017-12-29T03:10:20.866Z,8.27
2017-12-29T03:12:48.915Z,7.07
2017-12-29T03:15:16.466Z,11.30
2017-12-29T03:17:46.124Z,6.83
2017-12-29T03:20:13.864Z,10.93
2017-12-29T03:29:25.993Z,6.10
2017-12-29T03:31:55.555Z,8.87
2017-12-29T03:34:28.801Z,12.70
2017-12-29T03:37:02.171Z,7.10
2017-12-29T03:40:23.536Z,8.57
2017-12-29T03:42:53.481Z,12.97
2017-12-29T03:45:25.007Z,11.70
2017-12-29T03:47:54.743Z,9.07
2017-12-29T03:50:24.852Z,8.15
2017-12-29T03:53:08.719Z,9.03
2017-12-29T03:55:47.287Z,7.77
2017-12-29T03:58:16.799Z,7.25
2017-12-29T04:01:28.387Z,6.63
2017-12-29T04:06:33.970Z,9.07
2017-12-29T04:09:04.399Z,11.43
2017-12-29T04:14:05.073Z,12.45
2017-12-29T04:33:27.118Z,8.80
2017-12-29T04:43:02.141Z,11.98
2017-12-29T04:45:31.442Z,11.52
2017-12-29T04:48:01.461Z,15.45
2017-12-29T04:53:05.336Z,15.20
2017-12-29T04:55:38.184Z,16.85
2017-12-29T05:01:43.229Z,9.10
2017-12-29T05:04:14.090Z,11.25
2017-12-29T05:13:01.340Z,16.27
2017-12-29T05:21:59.526Z,12.43
2017-12-29T05:24:32.198Z,20.60
2017-12-29T05:27:01.301Z,25.00
2017-12-29T05:29:34.783Z,27.55
2017-12-29T05:35:47.318Z,20.53
2017-12-29T05:38:18.372Z,18.03
2017-12-29T05:40:49.381Z,16.70
2017-12-29T05:43:35.358Z,20.40
2017-12-29T05:46:07.055Z,23.27
2017-12-29T05:48:38.852Z,31.10
2017-12-29T06:57:43.200Z,18.17
2017-12-29T07:00:10.868Z,15.33
2017-12-29T07:02:38.412Z,21.87
2017-12-29T07:05:06.445Z,22.60
2017-12-29T07:07:34.332Z,31.03
2017-12-29T07:10:01.901Z,39.97
2017-12-29T07:12:29.735Z,53.87
2017-12-29T07:14:58.188Z,52.30
2017-12-29T07:17:25.877Z,50.83
2017-12-29T07:19:53.786Z,50.40
2017-12-29T07:22:21.373Z,47.27
2017-12-29T07:24:49.084Z,44.43
2017-12-29T07:27:17.726Z,47.23
2017-12-29T07:29:46.173Z,48.80
2017-12-29T07:32:15.832Z,42.50
2017-12-29T07:34:43.435Z,53.53
2017-12-29T07:37:11.952Z,63.27
2017-12-29T07:39:39.652Z,54.33
2017-12-29T07:42:08.181Z,49.00
2017-12-29T07:44:37.672Z,49.87
2017-12-29T07:47:06.916Z,45.63
2017-12-29T07:49:57.700Z,48.63
2017-12-29T07:52:25.785Z,44.90
2017-12-29T07:54:53.878Z,44.87
2017-12-29T07:57:23.727Z,39.13
2017-12-29T07:59:58.942Z,36.93
2017-12-29T08:02:26.511Z,29.87
2017-12-29T08:04:54.219Z,30.97
2017-12-29T08:07:21.851Z,23.70
2017-12-29T08:09:49.773Z,31.87
2017-12-29T08:12:17.740Z,28.87
2017-12-29T08:14:46.330Z,35.47
2017-12-29T08:17:14.108Z,30.37
2017-12-29T08:19:41.850Z,36.10
2017-12-29T08:22:09.696Z,45.10
2017-12-29T08:24:42.024Z,51.57
2017-12-29T08:27:12.016Z,39.57
2017-12-29T08:29:39.857Z,31.70
2017-12-29T08:32:07.839Z,24.10
2017-12-29T08:34:36.667Z,19.83
2017-12-29T08:37:04.427Z,20.77
2017-12-29T08:39:33.096Z,22.07
2017-12-29T08:42:01.046Z,20.17
2017-12-29T08:44:29.403Z,22.53
2017-12-29T08:46:57.483Z,23.57
2017-12-29T08:49:25.356Z,20.67
2017-12-29T08:51:54.585Z,27.43
2017-12-29T08:54:22.359Z,23.37
2017-12-29T08:56:50.990Z,27.77
2017-12-29T08:59:20.033Z,23.90
2017-12-29T09:01:47.731Z,25.37
2017-12-29T09:04:15.286Z,21.77
2017-12-29T09:06:56.228Z,25.10
2017-12-29T09:09:28.550Z,17.80
2017-12-29T09:11:56.141Z,24.70
2017-12-29T09:14:23.796Z,24.53
2017-12-29T09:16:51.510Z,33.30
2017-12-29T09:19:19.135Z,30.13
2017-12-29T09:21:46.847Z,28.97
2017-12-29T09:24:15.024Z,30.90
2017-12-29T09:26:42.846Z,30.23
2017-12-29T09:29:10.457Z,29.77
2017-12-29T09:31:38.110Z,34.20
2017-12-29T09:34:05.715Z,32.37
2017-12-29T09:36:33.491Z,32.50
2017-12-29T09:39:02.127Z,35.10
2017-12-29T09:41:29.701Z,31.67
2017-12-29T09:43:57.350Z,35.20
2017-12-29T09:46:25.175Z,32.73
2017-12-29T09:48:52.883Z,32.77
2017-12-29T09:51:20.670Z,28.13
2017-12-29T09:53:50.503Z,29.00
2017-12-29T09:56:18.405Z,25.97
2017-12-29T10:02:21.465Z,36.63
2017-12-29T10:07:38.978Z,31.07
2017-12-29T10:13:55.670Z,31.47
2017-12-29T10:23:00.136Z,37.00
2017-12-29T10:25:54.607Z,37.00
2017-12-29T10:28:25.997Z,42.07
2017-12-29T10:30:53.656Z,39.00
2017-12-29T10:45:41.223Z,52.87
2017-12-29T10:51:55.220Z,67.93
2017-12-29T10:54:22.817Z,66.73
2017-12-29T10:56:50.418Z,76.00
2017-12-29T10:59:27.123Z,62.17
2017-12-29T11:01:56.291Z,47.90
2017-12-29T11:04:34.631Z,46.27
2017-12-29T11:07:03.365Z,49.00
2017-12-29T11:09:40.893Z,55.17
2017-12-29T11:12:12.471Z,56.20
2017-12-29T11:14:49.653Z,57.73
2017-12-29T11:17:18.271Z,56.20
2017-12-29T11:19:47.764Z,62.47
2017-12-29T11:22:16.347Z,60.53
2017-12-29T11:24:45.386Z,60.73
2017-12-29T11:27:14.968Z,54.77
2017-12-29T11:29:43.335Z,57.50
2017-12-29T11:32:15.438Z,61.53
2017-12-29T13:12:01.436Z,61.23
2017-12-29T13:14:28.986Z,60.93
2017-12-29T13:17:06.020Z,68.03
2017-12-29T13:19:33.554Z,59.37
2017-12-29T13:22:01.120Z,63.50
2017-12-29T13:24:35.446Z,58.03
2017-12-29T13:27:03.009Z,58.90
2017-12-29T13:29:32.764Z,56.93
2017-12-29T13:32:13.888Z,46.40
2017-12-29T13:34:55.302Z,51.47
2017-12-29T13:41:31.127Z,39.60
2017-12-29T13:43:58.766Z,41.00
2017-12-29T13:46:46.034Z,34.20
2017-12-29T13:49:21.240Z,29.80
2017-12-29T13:51:49.105Z,32.03
2017-12-29T13:54:17.924Z,32.40
2017-12-29T13:59:57.901Z,36.67
2017-12-29T14:05:24.625Z,34.83
2017-12-29T14:08:00.362Z,31.50
2017-12-29T14:10:32.943Z,23.60
2017-12-29T14:13:09.963Z,26.63
2017-12-29T14:15:44.480Z,25.70
2017-12-29T14:24:16.610Z,34.20
2017-12-29T14:37:17.667Z,27.27
2017-12-29T14:40:01.344Z,34.13
2017-12-29T14:42:35.029Z,30.77
2017-12-29T14:45:26.453Z,34.40
2017-12-29T14:54:56.523Z,36.13
2017-12-29T14:57:42.761Z,36.30
2017-12-29T15:03:04.813Z,31.87
2017-12-29T15:13:11.352Z,12.30
2017-12-29T15:33:34.111Z,10.77
2017-12-29T15:42:52.891Z,10.27
2017-12-29T15:48:41.340Z,11.40
2017-12-29T15:51:14.555Z,13.03
2017-12-29T15:57:48.525Z,12.97
2017-12-29T16:00:52.313Z,12.83
2017-12-29T16:06:55.010Z,16.07
2017-12-29T16:10:26.936Z,17.33
2017-12-29T16:13:01.863Z,17.40
2017-12-29T16:15:35.669Z,21.33
2017-12-29T16:20:54.357Z,15.97
2017-12-29T16:23:31.596Z,20.40
2017-12-29T16:26:05.284Z,21.13
2017-12-29T16:28:44.796Z,18.80
2017-12-29T16:31:25.985Z,19.80
2017-12-29T16:37:06.383Z,18.33
2017-12-29T16:39:51.722Z,16.50
2017-12-29T16:42:25.446Z,12.90
2017-12-29T16:45:10.195Z,16.30
2017-12-29T16:47:45.287Z,15.87
2017-12-29T16:50:15.225Z,19.03
2017-12-29T16:52:46.625Z,19.47
2017-12-29T16:57:49.699Z,16.87
2017-12-29T17:00:19.141Z,17.77
2017-12-29T17:09:37.355Z,10.90
2017-12-29T17:18:53.801Z,10.70
2017-12-29T17:21:36.611Z,10.98
2017-12-29T17:24:48.506Z,13.50
2017-12-29T17:30:23.967Z,10.20
2017-12-29T17:39:56.193Z,9.57
2017-12-29T17:42:27.495Z,12.90
2017-12-29T17:52:13.526Z,18.50
2017-12-29T20:00:54.753Z,14.20
2017-12-29T20:03:22.366Z,21.02
2017-12-29T20:05:50.247Z,22.58
2017-12-29T20:08:19.274Z,20.50
2017-12-29T20:10:46.944Z,19.12
2017-12-29T20:13:14.549Z,21.08
2017-12-29T20:15:42.143Z,14.32
2017-12-29T20:18:10.017Z,17.58
2017-12-29T20:20:38.375Z,16.23
2017-12-29T20:23:09.789Z,17.40
2017-12-29T20:25:39.945Z,13.10
2017-12-29T20:28:07.773Z,19.85
2017-12-29T20:33:08.091Z,16.98
2017-12-29T20:35:39.938Z,13.77
2017-12-29T20:38:08.556Z,14.05
2017-12-29T20:40:38.541Z,17.27
2017-12-29T20:43:06.897Z,14.60
2017-12-29T20:45:36.195Z,14.38
2017-12-29T20:48:09.957Z,20.65
2017-12-29T20:50:41.127Z,22.75
2017-12-29T20:53:09.300Z,16.42
2017-12-29T20:55:45.976Z,17.87
2017-12-29T20:58:15.141Z,14.73
2017-12-29T21:00:42.704Z,15.60
2017-12-29T21:03:10.317Z,14.45
2017-12-29T21:05:37.970Z,14.07
2017-12-29T21:08:06.303Z,16.77
2017-12-29T21:10:34.893Z,14.00
2017-12-29T21:13:03.332Z,13.90
2017-12-29T21:15:30.945Z,15.13
2017-12-29T21:17:58.609Z,19.02
2017-12-29T21:20:34.084Z,13.68
2017-12-29T21:23:02.685Z,14.27
2017-12-29T21:26:12.483Z,13.60
2017-12-29T21:28:48.681Z,13.48
2017-12-29T21:31:31.401Z,13.35
2017-12-29T21:39:07.671Z,16.62
2017-12-29T21:41:35.452Z,14.30
2017-12-29T21:44:03.346Z,15.98
2017-12-29T21:46:38.431Z,15.93
2017-12-29T21:49:06.114Z,16.08
2017-12-29T21:51:33.762Z,15.95
2017-12-29T21:54:01.424Z,21.02
2017-12-29T21:56:32.166Z,18.23
2017-12-29T21:58:59.869Z,12.48
2017-12-29T22:01:36.710Z,14.70
2017-12-29T22:04:18.072Z,14.30
2017-12-29T22:06:47.130Z,18.27
2017-12-29T22:14:45.795Z,17.35
2017-12-29T22:20:17.720Z,18.90
2017-12-29T22:22:46.397Z,12.98
2017-12-29T22:25:20.569Z,16.23
2017-12-29T22:27:49.037Z,16.30
2017-12-29T22:30:20.429Z,13.90
2017-12-29T22:53:08.595Z,15.07
2017-12-29T23:05:20.001Z,15.43
2017-12-29T23:07:55.428Z,14.65
2017-12-29T23:13:07.340Z,17.95
2017-12-29T23:15:50.734Z,14.38
2017-12-29T23:18:21.152Z,16.08
2017-12-29T23:20:48.737Z,15.55
2017-12-29T23:23:20.128Z,19.23
2017-12-29T23:26:05.582Z,14.50
2017-12-29T23:35:32.600Z,17.17
2017-12-29T23:38:02.480Z,15.07
2017-12-29T23:43:24.205Z,16.33
2017-12-29T23:46:06.050Z,13.82
2017-12-29T23:48:42.932Z,16.20
2017-12-29T23:51:16.448Z,14.10
